sensor_id;sensor_type;location;lat;lon;timestamp;temperature;humidity
34815;DHT22;21030;53.912;15.214;2023-06-22T00:01:20;40.40;28.40
34815;DHT22;21030;53.912;15.214;2023-06-22T00:03:49;40.40;28.40
34815;DHT22;21030;53.912;15.214;2023-06-22T00:06:16;40.40;28.40
34815;DHT22;21030;53.912;15.214;2023-06-22T00:08:44;40.50;28.60
34815;DHT22;21030;53.912;15.214;2023-06-22T00:11:11;40.40;28.70
34815;DHT22;21030;53.912;15.214;2023-06-22T00:13:39;40.40;28.70
34815;DHT22;21030;53.912;15.214;2023-06-22T00:16:06;40.50;28.70
34815;DHT22;21030;53.912;15.214;2023-06-22T00:18:33;40.50;28.80
34815;DHT22;21030;53.912;15.214;2023-06-22T00:21:00;40.00;28.70
34815;DHT22;21030;53.912;15.214;2023-06-22T00:23:27;39.90;29.00
34815;DHT22;21030;53.912;15.214;2023-06-22T00:25:54;40.00;29.10
34815;DHT22;21030;53.912;15.214;2023-06-22T00:28:21;39.90;29.10
34815;DHT22;21030;53.912;15.214;2023-06-22T00:30:49;39.90;29.20
34815;DHT22;21030;53.912;15.214;2023-06-22T00:33:16;40.00;29.20
34815;DHT22;21030;53.912;15.214;2023-06-22T00:35:43;40.10;29.00
34815;DHT22;21030;53.912;15.214;2023-06-22T00:38:11;40.30;28.80
34815;DHT22;21030;53.912;15.214;2023-06-22T00:40:38;40.40;28.70
34815;DHT22;21030;53.912;15.214;2023-06-22T00:43:05;40.40;28.60
34815;DHT22;21030;53.912;15.214;2023-06-22T00:45:33;40.30;28.70
34815;DHT22;21030;53.912;15.214;2023-06-22T00:48:01;40.30;28.40
34815;DHT22;21030;53.912;15.214;2023-06-22T00:50:35;40.40;28.50
34815;DHT22;21030;53.912;15.214;2023-06-22T00:53:07;40.40;28.40
34815;DHT22;21030;53.912;15.214;2023-06-22T00:55:46;40.30;28.40
34815;DHT22;21030;53.912;15.214;2023-06-22T00:58:19;39.80;28.70
34815;DHT22;21030;53.912;15.214;2023-06-22T01:00:49;39.60;29.00
34815;DHT22;21030;53.912;15.214;2023-06-22T01:03:16;39.10;29.40
34815;DHT22;21030;53.912;15.214;2023-06-22T01:05:44;39.10;29.70
34815;DHT22;21030;53.912;15.214;2023-06-22T01:08:46;39.20;29.70
34815;DHT22;21030;53.912;15.214;2023-06-22T01:11:24;39.60;29.40
34815;DHT22;21030;53.912;15.214;2023-06-22T01:16:59;39.90;28.80
34815;DHT22;21030;53.912;15.214;2023-06-22T01:19:35;40.10;28.70
34815;DHT22;21030;53.912;15.214;2023-06-22T01:22:03;40.00;28.40
34815;DHT22;21030;53.912;15.214;2023-06-22T01:30:04;39.90;28.80
34815;DHT22;21030;53.912;15.214;2023-06-22T01:32:34;39.80;28.90
34815;DHT22;21030;53.912;15.214;2023-06-22T01:35:05;39.80;28.70
34815;DHT22;21030;53.912;15.214;2023-06-22T01:37:34;39.80;28.60
34815;DHT22;21030;53.912;15.214;2023-06-22T01:40:02;39.90;28.50
34815;DHT22;21030;53.912;15.214;2023-06-22T01:42:32;39.70;28.60
34815;DHT22;21030;53.912;15.214;2023-06-22T01:45:00;39.60;28.90
34815;DHT22;21030;53.912;15.214;2023-06-22T01:47:28;39.30;29.10
34815;DHT22;21030;53.912;15.214;2023-06-22T01:49:56;39.20;29.30
34815;DHT22;21030;53.912;15.214;2023-06-22T01:52:23;39.20;29.20
34815;DHT22;21030;53.912;15.214;2023-06-22T01:54:50;39.30;29.20
34815;DHT22;21030;53.912;15.214;2023-06-22T01:57:19;39.50;28.80
34815;DHT22;21030;53.912;15.214;2023-06-22T02:00:15;39.60;28.70
34815;DHT22;21030;53.912;15.214;2023-06-22T02:05:38;39.60;29.00
34815;DHT22;21030;53.912;15.214;2023-06-22T02:08:16;39.60;28.60
34815;DHT22;21030;53.912;15.214;2023-06-22T02:10:46;39.60;28.60
34815;DHT22;21030;53.912;15.214;2023-06-22T02:13:14;39.50;28.70
34815;DHT22;21030;53.912;15.214;2023-06-22T02:15:42;39.30;29.10
34815;DHT22;21030;53.912;15.214;2023-06-22T02:18:09;39.30;29.00
34815;DHT22;21030;53.912;15.214;2023-06-22T02:20:37;39.40;29.10
34815;DHT22;21030;53.912;15.214;2023-06-22T02:23:05;39.40;28.70
34815;DHT22;21030;53.912;15.214;2023-06-22T02:25:33;39.40;28.90
34815;DHT22;21030;53.912;15.214;2023-06-22T02:28:00;39.30;28.90
34815;DHT22;21030;53.912;15.214;2023-06-22T02:30:27;39.00;29.30
34815;DHT22;21030;53.912;15.214;2023-06-22T02:32:55;38.90;29.40
34815;DHT22;21030;53.912;15.214;2023-06-22T02:35:27;39.00;29.30
34815;DHT22;21030;53.912;15.214;2023-06-22T02:37:59;38.70;29.20
34815;DHT22;21030;53.912;15.214;2023-06-22T02:40:28;38.70;29.40
34815;DHT22;21030;53.912;15.214;2023-06-22T02:42:57;38.80;29.40
34815;DHT22;21030;53.912;15.214;2023-06-22T02:45:29;38.90;29.20
34815;DHT22;21030;53.912;15.214;2023-06-22T02:47:57;38.80;29.20
34815;DHT22;21030;53.912;15.214;2023-06-22T02:50:24;38.50;29.50
34815;DHT22;21030;53.912;15.214;2023-06-22T02:52:52;38.60;29.50
34815;DHT22;21030;53.912;15.214;2023-06-22T02:55:19;38.60;29.60
34815;DHT22;21030;53.912;15.214;2023-06-22T02:57:46;38.50;29.80
34815;DHT22;21030;53.912;15.214;2023-06-22T03:00:14;38.20;29.90
34815;DHT22;21030;53.912;15.214;2023-06-22T03:02:45;38.20;30.00
34815;DHT22;21030;53.912;15.214;2023-06-22T03:05:14;38.20;30.20
34815;DHT22;21030;53.912;15.214;2023-06-22T03:07:42;38.30;30.10
34815;DHT22;21030;53.912;15.214;2023-06-22T03:10:10;38.50;30.00
34815;DHT22;21030;53.912;15.214;2023-06-22T03:12:38;38.70;29.80
34815;DHT22;21030;53.912;15.214;2023-06-22T03:15:09;38.50;29.90
34815;DHT22;21030;53.912;15.214;2023-06-22T03:17:38;38.30;30.00
34815;DHT22;21030;53.912;15.214;2023-06-22T03:20:07;38.40;30.30
34815;DHT22;21030;53.912;15.214;2023-06-22T03:22:40;38.70;30.00
34815;DHT22;21030;53.912;15.214;2023-06-22T03:25:09;38.90;29.80
34815;DHT22;21030;53.912;15.214;2023-06-22T03:27:42;39.20;29.60
34815;DHT22;21030;53.912;15.214;2023-06-22T03:30:11;39.20;29.40
34815;DHT22;21030;53.912;15.214;2023-06-22T03:32:39;39.10;29.40
34815;DHT22;21030;53.912;15.214;2023-06-22T03:35:06;39.10;29.50
34815;DHT22;21030;53.912;15.214;2023-06-22T03:37:33;39.10;29.40
34815;DHT22;21030;53.912;15.214;2023-06-22T03:40:00;38.90;29.40
34815;DHT22;21030;53.912;15.214;2023-06-22T03:42:27;38.90;29.60
34815;DHT22;21030;53.912;15.214;2023-06-22T03:44:55;38.80;29.70
34815;DHT22;21030;53.912;15.214;2023-06-22T03:47:23;38.80;29.70
34815;DHT22;21030;53.912;15.214;2023-06-22T03:49:50;39.10;29.50
34815;DHT22;21030;53.912;15.214;2023-06-22T03:52:21;39.10;29.40
34815;DHT22;21030;53.912;15.214;2023-06-22T03:54:49;39.10;29.40
34815;DHT22;21030;53.912;15.214;2023-06-22T03:57:16;39.20;29.40
34815;DHT22;21030;53.912;15.214;2023-06-22T03:59:43;39.30;29.30
34815;DHT22;21030;53.912;15.214;2023-06-22T04:02:10;39.50;29.20
34815;DHT22;21030;53.912;15.214;2023-06-22T04:04:37;39.50;29.20
34815;DHT22;21030;53.912;15.214;2023-06-22T04:07:05;39.50;29.30
34815;DHT22;21030;53.912;15.214;2023-06-22T04:09:33;39.40;29.00
34815;DHT22;21030;53.912;15.214;2023-06-22T04:12:01;39.30;29.10
34815;DHT22;21030;53.912;15.214;2023-06-22T04:14:28;39.30;29.10
34815;DHT22;21030;53.912;15.214;2023-06-22T04:16:55;39.40;29.10
34815;DHT22;21030;53.912;15.214;2023-06-22T04:19:22;39.40;29.00
34815;DHT22;21030;53.912;15.214;2023-06-22T04:21:50;39.20;29.10
34815;DHT22;21030;53.912;15.214;2023-06-22T04:24:17;39.20;29.30
34815;DHT22;21030;53.912;15.214;2023-06-22T04:26:44;39.30;29.20
34815;DHT22;21030;53.912;15.214;2023-06-22T04:29:13;39.40;29.20
34815;DHT22;21030;53.912;15.214;2023-06-22T04:31:41;39.60;29.20
34815;DHT22;21030;53.912;15.214;2023-06-22T04:34:08;39.60;29.30
34815;DHT22;21030;53.912;15.214;2023-06-22T04:36:37;39.60;29.40
34815;DHT22;21030;53.912;15.214;2023-06-22T04:39:10;39.60;29.20
34815;DHT22;21030;53.912;15.214;2023-06-22T04:41:38;39.80;29.20
34815;DHT22;21030;53.912;15.214;2023-06-22T04:46:40;40.30;29.10
34815;DHT22;21030;53.912;15.214;2023-06-22T04:49:08;40.50;28.90
34815;DHT22;21030;53.912;15.214;2023-06-22T04:51:40;40.70;28.70
34815;DHT22;21030;53.912;15.214;2023-06-22T04:54:09;40.60;28.70
34815;DHT22;21030;53.912;15.214;2023-06-22T04:56:36;40.40;29.10
34815;DHT22;21030;53.912;15.214;2023-06-22T04:59:04;40.40;29.40
34815;DHT22;21030;53.912;15.214;2023-06-22T05:01:31;40.00;29.60
34815;DHT22;21030;53.912;15.214;2023-06-22T05:03:58;40.00;29.60
34815;DHT22;21030;53.912;15.214;2023-06-22T05:06:28;40.00;29.60
34815;DHT22;21030;53.912;15.214;2023-06-22T05:08:56;39.90;29.70
34815;DHT22;21030;53.912;15.214;2023-06-22T05:11:27;39.80;30.00
34815;DHT22;21030;53.912;15.214;2023-06-22T05:13:55;39.90;29.90
34815;DHT22;21030;53.912;15.214;2023-06-22T05:16:23;39.80;30.20
34815;DHT22;21030;53.912;15.214;2023-06-22T05:18:55;40.00;30.20
34815;DHT22;21030;53.912;15.214;2023-06-22T05:21:28;39.90;30.20
34815;DHT22;21030;53.912;15.214;2023-06-22T05:23:55;39.90;30.60
34815;DHT22;21030;53.912;15.214;2023-06-22T05:26:29;40.00;30.90
34815;DHT22;21030;53.912;15.214;2023-06-22T05:28:57;40.40;30.20
34815;DHT22;21030;53.912;15.214;2023-06-22T05:31:24;40.60;30.30
34815;DHT22;21030;53.912;15.214;2023-06-22T05:33:53;41.30;29.80
34815;DHT22;21030;53.912;15.214;2023-06-22T05:36:21;41.80;29.50
34815;DHT22;21030;53.912;15.214;2023-06-22T05:38:56;41.90;29.00
34815;DHT22;21030;53.912;15.214;2023-06-22T05:41:23;42.00;28.90
34815;DHT22;21030;53.912;15.214;2023-06-22T05:43:50;41.70;28.50
34815;DHT22;21030;53.912;15.214;2023-06-22T05:46:18;41.90;28.50
34815;DHT22;21030;53.912;15.214;2023-06-22T05:48:46;42.30;28.60
34815;DHT22;21030;53.912;15.214;2023-06-22T05:51:13;42.70;28.30
34815;DHT22;21030;53.912;15.214;2023-06-22T05:53:40;42.90;28.20
34815;DHT22;21030;53.912;15.214;2023-06-22T05:56:07;42.90;27.20
34815;DHT22;21030;53.912;15.214;2023-06-22T05:58:35;42.90;27.10
34815;DHT22;21030;53.912;15.214;2023-06-22T06:01:02;42.90;27.10
34815;DHT22;21030;53.912;15.214;2023-06-22T06:03:29;42.80;27.00
34815;DHT22;21030;53.912;15.214;2023-06-22T06:05:56;42.80;26.80
34815;DHT22;21030;53.912;15.214;2023-06-22T06:08:23;43.20;26.20
34815;DHT22;21030;53.912;15.214;2023-06-22T06:10:50;43.10;26.40
34815;DHT22;21030;53.912;15.214;2023-06-22T06:13:20;43.00;26.30
34815;DHT22;21030;53.912;15.214;2023-06-22T06:15:47;43.40;26.60
34815;DHT22;21030;53.912;15.214;2023-06-22T06:18:14;43.50;26.40
34815;DHT22;21030;53.912;15.214;2023-06-22T06:20:42;43.80;26.10
34815;DHT22;21030;53.912;15.214;2023-06-22T06:23:09;44.10;26.00
34815;DHT22;21030;53.912;15.214;2023-06-22T06:25:36;43.80;25.60
34815;DHT22;21030;53.912;15.214;2023-06-22T06:28:03;43.80;25.70
34815;DHT22;21030;53.912;15.214;2023-06-22T06:30:31;43.80;25.70
34815;DHT22;21030;53.912;15.214;2023-06-22T06:32:59;44.10;26.00
34815;DHT22;21030;53.912;15.214;2023-06-22T06:35:26;44.20;25.70
34815;DHT22;21030;53.912;15.214;2023-06-22T06:37:54;44.30;25.60
34815;DHT22;21030;53.912;15.214;2023-06-22T06:40:21;44.70;25.80
34815;DHT22;21030;53.912;15.214;2023-06-22T06:42:48;44.80;25.60
34815;DHT22;21030;53.912;15.214;2023-06-22T06:45:18;44.80;25.00
34815;DHT22;21030;53.912;15.214;2023-06-22T06:47:46;44.60;25.10
34815;DHT22;21030;53.912;15.214;2023-06-22T06:50:14;44.90;25.20
34815;DHT22;21030;53.912;15.214;2023-06-22T06:52:41;45.20;25.30
34815;DHT22;21030;53.912;15.214;2023-06-22T06:55:09;45.50;24.80
34815;DHT22;21030;53.912;15.214;2023-06-22T06:57:41;45.50;24.50
34815;DHT22;21030;53.912;15.214;2023-06-22T07:00:11;45.60;25.20
34815;DHT22;21030;53.912;15.214;2023-06-22T07:02:43;45.60;25.10
34815;DHT22;21030;53.912;15.214;2023-06-22T07:05:12;45.60;24.80
34815;DHT22;21030;53.912;15.214;2023-06-22T07:07:40;45.90;24.30
34815;DHT22;21030;53.912;15.214;2023-06-22T07:10:08;46.00;24.40
34815;DHT22;21030;53.912;15.214;2023-06-22T07:12:36;46.20;24.20
34815;DHT22;21030;53.912;15.214;2023-06-22T07:15:04;46.60;23.90
34815;DHT22;21030;53.912;15.214;2023-06-22T07:17:32;46.40;23.70
34815;DHT22;21030;53.912;15.214;2023-06-22T07:19:59;46.60;23.30
34815;DHT22;21030;53.912;15.214;2023-06-22T07:22:26;46.80;23.30
34815;DHT22;21030;53.912;15.214;2023-06-22T07:24:53;46.40;22.80
34815;DHT22;21030;53.912;15.214;2023-06-22T07:27:21;46.50;23.40
34815;DHT22;21030;53.912;15.214;2023-06-22T07:29:48;47.10;22.80
34815;DHT22;21030;53.912;15.214;2023-06-22T07:32:15;47.50;22.50
34815;DHT22;21030;53.912;15.214;2023-06-22T07:34:42;47.50;22.00
34815;DHT22;21030;53.912;15.214;2023-06-22T07:37:10;47.60;21.40
34815;DHT22;21030;53.912;15.214;2023-06-22T07:39:37;48.00;21.60
34815;DHT22;21030;53.912;15.214;2023-06-22T07:42:04;48.50;21.80
34815;DHT22;21030;53.912;15.214;2023-06-22T07:44:31;48.50;21.20
34815;DHT22;21030;53.912;15.214;2023-06-22T07:46:58;48.30;21.50
34815;DHT22;21030;53.912;15.214;2023-06-22T07:49:27;48.60;21.20
34815;DHT22;21030;53.912;15.214;2023-06-22T07:51:54;48.80;21.10
34815;DHT22;21030;53.912;15.214;2023-06-22T07:54:21;49.00;21.00
34815;DHT22;21030;53.912;15.214;2023-06-22T07:56:48;48.90;20.60
34815;DHT22;21030;53.912;15.214;2023-06-22T07:59:15;49.00;20.70
34815;DHT22;21030;53.912;15.214;2023-06-22T08:01:42;49.10;20.60
34815;DHT22;21030;53.912;15.214;2023-06-22T08:04:09;49.20;21.10
34815;DHT22;21030;53.912;15.214;2023-06-22T08:06:38;49.50;21.20
34815;DHT22;21030;53.912;15.214;2023-06-22T08:09:05;49.90;20.30
34815;DHT22;21030;53.912;15.214;2023-06-22T08:11:32;50.10;19.80
34815;DHT22;21030;53.912;15.214;2023-06-22T08:13:59;50.40;20.00
34815;DHT22;21030;53.912;15.214;2023-06-22T08:16:26;50.50;19.80
34815;DHT22;21030;53.912;15.214;2023-06-22T08:18:53;50.70;19.30
34815;DHT22;21030;53.912;15.214;2023-06-22T08:21:21;50.80;19.50
34815;DHT22;21030;53.912;15.214;2023-06-22T08:23:48;51.10;19.40
34815;DHT22;21030;53.912;15.214;2023-06-22T08:26:15;51.30;19.30
34815;DHT22;21030;53.912;15.214;2023-06-22T08:28:42;51.60;19.10
34815;DHT22;21030;53.912;15.214;2023-06-22T08:31:09;51.30;18.60
34815;DHT22;21030;53.912;15.214;2023-06-22T08:33:39;51.00;19.10
34815;DHT22;21030;53.912;15.214;2023-06-22T08:36:15;50.80;19.10
34815;DHT22;21030;53.912;15.214;2023-06-22T08:38:43;50.10;19.30
34815;DHT22;21030;53.912;15.214;2023-06-22T08:41:10;50.60;19.10
34815;DHT22;21030;53.912;15.214;2023-06-22T08:43:37;51.00;19.60
34815;DHT22;21030;53.912;15.214;2023-06-22T08:46:04;51.30;18.80
34815;DHT22;21030;53.912;15.214;2023-06-22T08:48:31;51.50;18.60
34815;DHT22;21030;53.912;15.214;2023-06-22T08:50:59;51.60;18.30
34815;DHT22;21030;53.912;15.214;2023-06-22T08:53:26;51.80;17.80
34815;DHT22;21030;53.912;15.214;2023-06-22T08:55:53;51.90;17.50
34815;DHT22;21030;53.912;15.214;2023-06-22T08:58:22;52.30;18.50
34815;DHT22;21030;53.912;15.214;2023-06-22T09:00:50;52.60;18.30
34815;DHT22;21030;53.912;15.214;2023-06-22T09:03:18;52.90;18.40
34815;DHT22;21030;53.912;15.214;2023-06-22T09:05:47;52.80;18.40
34815;DHT22;21030;53.912;15.214;2023-06-22T09:08:14;52.30;17.70
34815;DHT22;21030;53.912;15.214;2023-06-22T09:10:42;51.70;17.30
34815;DHT22;21030;53.912;15.214;2023-06-22T09:13:09;51.00;18.10
34815;DHT22;21030;53.912;15.214;2023-06-22T09:15:39;51.40;19.20
34815;DHT22;21030;53.912;15.214;2023-06-22T09:18:10;51.70;18.90
34815;DHT22;21030;53.912;15.214;2023-06-22T09:20:38;52.00;18.10
34815;DHT22;21030;53.912;15.214;2023-06-22T09:23:05;52.10;18.10
34815;DHT22;21030;53.912;15.214;2023-06-22T09:25:33;52.30;18.10
34815;DHT22;21030;53.912;15.214;2023-06-22T09:28:00;52.50;18.60
34815;DHT22;21030;53.912;15.214;2023-06-22T09:30:27;52.70;17.80
34815;DHT22;21030;53.912;15.214;2023-06-22T09:32:55;51.90;17.20
34815;DHT22;21030;53.912;15.214;2023-06-22T09:35:22;51.60;17.70
34815;DHT22;21030;53.912;15.214;2023-06-22T09:37:49;51.60;17.90
34815;DHT22;21030;53.912;15.214;2023-06-22T09:40:16;52.10;17.60
34815;DHT22;21030;53.912;15.214;2023-06-22T09:42:44;52.20;17.80
34815;DHT22;21030;53.912;15.214;2023-06-22T09:45:11;52.30;17.70
34815;DHT22;21030;53.912;15.214;2023-06-22T09:47:38;52.50;17.60
34815;DHT22;21030;53.912;15.214;2023-06-22T09:50:06;52.90;17.90
34815;DHT22;21030;53.912;15.214;2023-06-22T09:52:33;52.50;17.00
34815;DHT22;21030;53.912;15.214;2023-06-22T09:55:14;51.80;17.30
34815;DHT22;21030;53.912;15.214;2023-06-22T09:57:43;52.00;17.80
34815;DHT22;21030;53.912;15.214;2023-06-22T10:00:10;52.20;17.70
34815;DHT22;21030;53.912;15.214;2023-06-22T10:02:41;52.10;17.70
34815;DHT22;21030;53.912;15.214;2023-06-22T10:05:08;52.10;17.50
34815;DHT22;21030;53.912;15.214;2023-06-22T10:07:36;52.10;17.40
34815;DHT22;21030;53.912;15.214;2023-06-22T10:10:13;51.70;17.30
34815;DHT22;21030;53.912;15.214;2023-06-22T10:12:44;51.70;17.70
34815;DHT22;21030;53.912;15.214;2023-06-22T10:15:12;51.90;18.30
34815;DHT22;21030;53.912;15.214;2023-06-22T10:17:39;52.00;17.70
34815;DHT22;21030;53.912;15.214;2023-06-22T10:20:07;52.10;17.40
34815;DHT22;21030;53.912;15.214;2023-06-22T10:22:43;52.20;17.00
34815;DHT22;21030;53.912;15.214;2023-06-22T10:25:12;52.30;17.40
34815;DHT22;21030;53.912;15.214;2023-06-22T10:27:39;52.20;16.80
34815;DHT22;21030;53.912;15.214;2023-06-22T10:30:08;52.50;17.00
34815;DHT22;21030;53.912;15.214;2023-06-22T10:32:37;52.40;16.60
34815;DHT22;21030;53.912;15.214;2023-06-22T10:35:05;52.50;16.90
34815;DHT22;21030;53.912;15.214;2023-06-22T10:37:33;52.00;17.00
34815;DHT22;21030;53.912;15.214;2023-06-22T10:40:00;51.60;16.40
34815;DHT22;21030;53.912;15.214;2023-06-22T10:42:26;51.70;17.20
34815;DHT22;21030;53.912;15.214;2023-06-22T10:44:53;51.10;17.00
34815;DHT22;21030;53.912;15.214;2023-06-22T10:47:21;51.20;17.00
34815;DHT22;21030;53.912;15.214;2023-06-22T10:49:48;51.70;17.10
34815;DHT22;21030;53.912;15.214;2023-06-22T10:52:15;51.00;16.90
34815;DHT22;21030;53.912;15.214;2023-06-22T10:54:42;50.30;17.10
34815;DHT22;21030;53.912;15.214;2023-06-22T10:57:09;49.90;17.50
34815;DHT22;21030;53.912;15.214;2023-06-22T10:59:41;49.80;17.70
34815;DHT22;21030;53.912;15.214;2023-06-22T11:02:09;50.40;17.20
34815;DHT22;21030;53.912;15.214;2023-06-22T11:04:36;50.90;17.70
34815;DHT22;21030;53.912;15.214;2023-06-22T11:07:03;51.40;17.50
34815;DHT22;21030;53.912;15.214;2023-06-22T11:09:30;52.00;17.00
34815;DHT22;21030;53.912;15.214;2023-06-22T11:11:58;52.10;17.00
34815;DHT22;21030;53.912;15.214;2023-06-22T11:14:26;52.40;16.70
34815;DHT22;21030;53.912;15.214;2023-06-22T11:16:53;52.60;16.80
34815;DHT22;21030;53.912;15.214;2023-06-22T11:19:20;53.00;16.60
34815;DHT22;21030;53.912;15.214;2023-06-22T11:21:47;52.60;15.80
34815;DHT22;21030;53.912;15.214;2023-06-22T11:24:14;51.80;15.60
34815;DHT22;21030;53.912;15.214;2023-06-22T11:26:42;51.20;16.50
34815;DHT22;21030;53.912;15.214;2023-06-22T11:29:09;51.40;16.50
34815;DHT22;21030;53.912;15.214;2023-06-22T11:31:49;51.30;16.90
34815;DHT22;21030;53.912;15.214;2023-06-22T11:34:16;51.30;16.60
34815;DHT22;21030;53.912;15.214;2023-06-22T11:36:44;51.70;16.60
34815;DHT22;21030;53.912;15.214;2023-06-22T11:39:11;52.00;16.80
34815;DHT22;21030;53.912;15.214;2023-06-22T11:41:41;51.70;15.90
34815;DHT22;21030;53.912;15.214;2023-06-22T11:44:08;51.90;16.40
34815;DHT22;21030;53.912;15.214;2023-06-22T11:46:36;51.80;16.40
34815;DHT22;21030;53.912;15.214;2023-06-22T11:49:03;51.50;17.00
34815;DHT22;21030;53.912;15.214;2023-06-22T11:51:30;51.70;16.70
34815;DHT22;21030;53.912;15.214;2023-06-22T11:53:58;52.10;16.90
34815;DHT22;21030;53.912;15.214;2023-06-22T11:56:26;52.50;17.10
34815;DHT22;21030;53.912;15.214;2023-06-22T11:58:54;53.00;16.70
34815;DHT22;21030;53.912;15.214;2023-06-22T12:01:21;53.10;16.80
34815;DHT22;21030;53.912;15.214;2023-06-22T12:03:48;53.50;16.40
34815;DHT22;21030;53.912;15.214;2023-06-22T12:06:15;53.70;16.40
34815;DHT22;21030;53.912;15.214;2023-06-22T12:08:42;53.80;16.30
34815;DHT22;21030;53.912;15.214;2023-06-22T12:11:10;53.70;16.00
34815;DHT22;21030;53.912;15.214;2023-06-22T12:13:37;54.00;16.00
34815;DHT22;21030;53.912;15.214;2023-06-22T12:16:04;53.80;15.80
34815;DHT22;21030;53.912;15.214;2023-06-22T12:18:32;54.00;15.80
34815;DHT22;21030;53.912;15.214;2023-06-22T12:20:59;54.10;15.80
34815;DHT22;21030;53.912;15.214;2023-06-22T12:23:26;54.20;15.80
34815;DHT22;21030;53.912;15.214;2023-06-22T12:25:53;54.10;15.70
34815;DHT22;21030;53.912;15.214;2023-06-22T12:28:20;54.00;15.80
34815;DHT22;21030;53.912;15.214;2023-06-22T12:30:47;53.90;15.50
34815;DHT22;21030;53.912;15.214;2023-06-22T12:33:14;54.00;15.50
34815;DHT22;21030;53.912;15.214;2023-06-22T12:35:41;54.10;15.50
34815;DHT22;21030;53.912;15.214;2023-06-22T12:38:08;54.20;15.50
34815;DHT22;21030;53.912;15.214;2023-06-22T12:40:36;54.10;15.50
34815;DHT22;21030;53.912;15.214;2023-06-22T12:43:03;53.90;15.30
34815;DHT22;21030;53.912;15.214;2023-06-22T12:45:30;54.00;15.70
34815;DHT22;21030;53.912;15.214;2023-06-22T12:48:01;53.90;15.40
34815;DHT22;21030;53.912;15.214;2023-06-22T12:50:28;53.90;15.60
34815;DHT22;21030;53.912;15.214;2023-06-22T12:52:56;53.70;15.30
34815;DHT22;21030;53.912;15.214;2023-06-22T12:55:23;53.70;16.30
34815;DHT22;21030;53.912;15.214;2023-06-22T12:57:50;53.50;15.20
34815;DHT22;21030;53.912;15.214;2023-06-22T13:00:17;53.30;15.70
34815;DHT22;21030;53.912;15.214;2023-06-22T13:02:45;53.30;15.50
34815;DHT22;21030;53.912;15.214;2023-06-22T13:05:12;53.30;15.40
34815;DHT22;21030;53.912;15.214;2023-06-22T13:07:39;53.40;15.60
34815;DHT22;21030;53.912;15.214;2023-06-22T13:10:07;53.20;15.60
34815;DHT22;21030;53.912;15.214;2023-06-22T13:12:34;53.30;15.40
34815;DHT22;21030;53.912;15.214;2023-06-22T13:15:01;53.10;15.40
34815;DHT22;21030;53.912;15.214;2023-06-22T13:17:29;52.60;15.60
34815;DHT22;21030;53.912;15.214;2023-06-22T13:19:56;52.50;15.60
34815;DHT22;21030;53.912;15.214;2023-06-22T13:22:32;52.50;15.60
34815;DHT22;21030;53.912;15.214;2023-06-22T13:25:00;52.50;15.80
34815;DHT22;21030;53.912;15.214;2023-06-22T13:27:27;52.40;15.80
34815;DHT22;21030;53.912;15.214;2023-06-22T13:29:54;52.60;16.00
34815;DHT22;21030;53.912;15.214;2023-06-22T13:32:21;52.70;15.80
34815;DHT22;21030;53.912;15.214;2023-06-22T13:34:48;52.80;15.90
34815;DHT22;21030;53.912;15.214;2023-06-22T13:37:15;52.80;15.60
34815;DHT22;21030;53.912;15.214;2023-06-22T13:39:42;52.70;15.40
34815;DHT22;21030;53.912;15.214;2023-06-22T13:42:09;52.60;15.30
34815;DHT22;21030;53.912;15.214;2023-06-22T13:44:36;52.40;15.30
34815;DHT22;21030;53.912;15.214;2023-06-22T13:47:03;52.60;15.60
34815;DHT22;21030;53.912;15.214;2023-06-22T13:49:31;52.50;15.80
34815;DHT22;21030;53.912;15.214;2023-06-22T13:51:59;52.40;15.40
34815;DHT22;21030;53.912;15.214;2023-06-22T13:54:26;51.90;15.30
34815;DHT22;21030;53.912;15.214;2023-06-22T13:56:56;52.10;16.00
34815;DHT22;21030;53.912;15.214;2023-06-22T13:59:23;52.20;15.90
34815;DHT22;21030;53.912;15.214;2023-06-22T14:01:50;51.90;15.80
34815;DHT22;21030;53.912;15.214;2023-06-22T14:04:17;51.50;16.00
34815;DHT22;21030;53.912;15.214;2023-06-22T14:06:45;51.40;16.20
34815;DHT22;21030;53.912;15.214;2023-06-22T14:09:12;51.60;16.00
34815;DHT22;21030;53.912;15.214;2023-06-22T14:11:39;51.60;16.10
34815;DHT22;21030;53.912;15.214;2023-06-22T14:14:06;51.50;16.10
34815;DHT22;21030;53.912;15.214;2023-06-22T14:16:33;51.50;16.30
34815;DHT22;21030;53.912;15.214;2023-06-22T14:19:00;51.50;16.20
34815;DHT22;21030;53.912;15.214;2023-06-22T14:21:27;51.50;16.30
34815;DHT22;21030;53.912;15.214;2023-06-22T14:23:54;51.50;16.40
34815;DHT22;21030;53.912;15.214;2023-06-22T14:26:21;51.40;16.50
34815;DHT22;21030;53.912;15.214;2023-06-22T14:28:49;51.10;16.20
34815;DHT22;21030;53.912;15.214;2023-06-22T14:31:19;51.10;16.60
34815;DHT22;21030;53.912;15.214;2023-06-22T14:33:47;51.10;16.50
34815;DHT22;21030;53.912;15.214;2023-06-22T14:36:16;51.00;16.60
34815;DHT22;21030;53.912;15.214;2023-06-22T14:38:45;51.00;16.70
34815;DHT22;21030;53.912;15.214;2023-06-22T14:41:13;50.90;16.50
34815;DHT22;21030;53.912;15.214;2023-06-22T14:43:48;50.70;16.50
34815;DHT22;21030;53.912;15.214;2023-06-22T14:46:17;50.60;17.00
34815;DHT22;21030;53.912;15.214;2023-06-22T14:48:45;50.50;17.10
34815;DHT22;21030;53.912;15.214;2023-06-22T14:51:12;50.10;17.00
34815;DHT22;21030;53.912;15.214;2023-06-22T14:53:43;49.90;17.30
34815;DHT22;21030;53.912;15.214;2023-06-22T14:56:11;50.00;17.40
34815;DHT22;21030;53.912;15.214;2023-06-22T14:58:41;49.80;17.20
34815;DHT22;21030;53.912;15.214;2023-06-22T15:01:10;49.50;17.70
34815;DHT22;21030;53.912;15.214;2023-06-22T15:03:37;49.00;17.90
34815;DHT22;21030;53.912;15.214;2023-06-22T15:06:04;48.70;18.20
34815;DHT22;21030;53.912;15.214;2023-06-22T15:08:31;48.30;18.10
34815;DHT22;21030;53.912;15.214;2023-06-22T15:10:59;48.00;18.40
34815;DHT22;21030;53.912;15.214;2023-06-22T15:13:30;47.90;18.60
34815;DHT22;21030;53.912;15.214;2023-06-22T15:16:04;47.50;18.70
34815;DHT22;21030;53.912;15.214;2023-06-22T15:18:31;47.10;18.60
34815;DHT22;21030;53.912;15.214;2023-06-22T15:21:01;47.20;18.70
34815;DHT22;21030;53.912;15.214;2023-06-22T15:23:31;47.30;19.10
34815;DHT22;21030;53.912;15.214;2023-06-22T15:26:02;46.90;18.90
34815;DHT22;21030;53.912;15.214;2023-06-22T15:28:39;46.90;19.00
34815;DHT22;21030;53.912;15.214;2023-06-22T15:31:06;46.60;19.30
34815;DHT22;21030;53.912;15.214;2023-06-22T15:33:33;46.40;18.90
34815;DHT22;21030;53.912;15.214;2023-06-22T15:36:00;46.30;19.20